createdAt,value
2019-03-17T00:00:51.676Z,86.88
2019-03-17T00:03:17.887Z,87.52
2019-03-17T00:05:44.117Z,87.85
2019-03-17T00:08:10.215Z,88.00
2019-03-17T00:10:36.719Z,88.20
2019-03-17T00:13:03.323Z,87.65
2019-03-17T00:15:30.434Z,88.14
2019-03-17T00:17:56.487Z,87.92
2019-03-17T00:20:22.721Z,87.84
2019-03-17T00:22:48.950Z,88.30
2019-03-17T00:25:15.216Z,88.01
2019-03-17T00:27:41.783Z,88.17
2019-03-17T00:30:10.195Z,88.26
2019-03-17T00:32:36.354Z,88.43
2019-03-17T00:35:04.322Z,89.09
2019-03-17T00:37:30.819Z,88.86
2019-03-17T00:39:56.961Z,88.97
2019-03-17T00:42:23.162Z,89.36
2019-03-17T00:44:49.388Z,89.13
2019-03-17T00:47:15.640Z,88.99
2019-03-17T00:49:41.724Z,89.29
2019-03-17T00:52:08.047Z,89.39
2019-03-17T00:54:38.530Z,89.23
2019-03-17T00:57:04.961Z,89.21
2019-03-17T00:59:31.197Z,89.13
2019-03-17T01:01:57.585Z,88.94
2019-03-17T01:04:23.759Z,88.89
2019-03-17T01:06:49.889Z,88.38
2019-03-17T01:09:16.016Z,88.39
2019-03-17T01:11:42.092Z,88.20
2019-03-17T01:14:08.148Z,87.92
2019-03-17T01:16:34.347Z,87.85
2019-03-17T01:19:10.236Z,87.56
2019-03-17T01:21:36.994Z,88.28
2019-03-17T01:24:03.291Z,87.97
2019-03-17T01:26:29.733Z,88.02
2019-03-17T01:28:55.923Z,87.64
2019-03-17T01:31:22.039Z,87.52
2019-03-17T01:33:48.451Z,87.70
2019-03-17T01:36:14.514Z,87.80
2019-03-17T01:38:40.671Z,87.78
2019-03-17T01:41:06.805Z,87.35
2019-03-17T01:43:32.956Z,87.01
2019-03-17T01:45:59.159Z,87.39
2019-03-17T01:48:25.306Z,87.07
2019-03-17T01:50:51.515Z,86.91
2019-03-17T01:53:17.674Z,86.88
2019-03-17T01:55:43.777Z,86.91
2019-03-17T01:58:13.103Z,87.57
2019-03-17T02:00:39.571Z,87.01
2019-03-17T02:03:05.736Z,86.91
2019-03-17T02:05:31.774Z,87.23
2019-03-17T02:07:57.980Z,86.75
2019-03-17T02:10:25.027Z,87.69
2019-03-17T02:12:52.188Z,86.74
2019-03-17T02:15:18.274Z,86.37
2019-03-17T02:17:44.379Z,86.12
2019-03-17T02:20:10.769Z,85.89
2019-03-17T02:22:36.982Z,85.93
2019-03-17T02:25:04.649Z,86.11
2019-03-17T02:27:31.146Z,85.56
2019-03-17T02:29:57.329Z,85.69
2019-03-17T02:32:23.487Z,85.35
2019-03-17T02:34:49.743Z,86.17
2019-03-17T02:37:15.938Z,85.69
2019-03-17T02:39:42.144Z,86.39
2019-03-17T02:42:08.276Z,86.18
2019-03-17T02:44:34.589Z,86.13
2019-03-17T02:47:00.883Z,86.01
2019-03-17T02:49:27.078Z,85.87
2019-03-17T02:51:53.265Z,86.49
2019-03-17T02:54:19.464Z,86.46
2019-03-17T02:56:45.551Z,86.10
2019-03-17T02:59:11.746Z,86.73
2019-03-17T03:01:37.909Z,85.67
2019-03-17T03:04:04.099Z,86.31
2019-03-17T03:06:30.159Z,85.55
2019-03-17T03:08:56.318Z,85.95
2019-03-17T03:11:22.407Z,85.94
2019-03-17T03:13:48.433Z,86.08
2019-03-17T03:16:14.483Z,86.43
2019-03-17T03:18:40.668Z,86.03
2019-03-17T03:21:06.850Z,85.97
2019-03-17T03:23:32.984Z,86.29
2019-03-17T03:25:59.180Z,86.49
2019-03-17T03:28:25.393Z,86.49
2019-03-17T03:30:51.565Z,86.13
2019-03-17T03:33:17.958Z,86.46
2019-03-17T03:35:44.171Z,85.71
2019-03-17T03:38:10.311Z,86.20
2019-03-17T03:40:36.446Z,86.44
2019-03-17T03:43:03.616Z,86.24
2019-03-17T03:45:29.867Z,86.04
2019-03-17T03:47:56.059Z,86.08
2019-03-17T03:50:22.269Z,86.11
2019-03-17T03:52:48.439Z,86.11
2019-03-17T03:55:14.504Z,85.99
2019-03-17T03:57:40.655Z,86.49
2019-03-17T04:00:10.549Z,85.27
2019-03-17T04:02:36.673Z,85.70
2019-03-17T04:05:04.846Z,85.64
2019-03-17T04:07:30.963Z,85.09
2019-03-17T04:09:56.995Z,84.98
2019-03-17T04:12:23.059Z,85.32
2019-03-17T04:14:49.219Z,84.92
2019-03-17T04:17:15.271Z,84.77
2019-03-17T04:19:41.357Z,84.25
2019-03-17T04:22:07.474Z,84.52
2019-03-17T04:24:33.652Z,84.47
2019-03-17T04:26:59.702Z,84.32
2019-03-17T04:29:26.028Z,83.74
2019-03-17T04:31:52.427Z,83.95
2019-03-17T04:34:18.577Z,84.37
2019-03-17T04:36:44.660Z,84.26
2019-03-17T04:39:10.770Z,84.66
2019-03-17T04:41:36.916Z,84.38
2019-03-17T04:44:02.989Z,83.08
2019-03-17T04:46:29.412Z,83.66
2019-03-17T04:48:55.561Z,83.07
2019-03-17T04:51:21.731Z,83.54
2019-03-17T04:53:47.894Z,83.10
2019-03-17T04:56:13.978Z,83.57
2019-03-17T04:58:40.145Z,83.43
2019-03-17T05:01:06.382Z,82.83
2019-03-17T05:03:32.584Z,82.56
2019-03-17T05:06:01.784Z,81.86
2019-03-17T05:11:08.102Z,82.67
2019-03-17T05:13:34.194Z,82.56
2019-03-17T05:16:00.383Z,83.18
2019-03-17T05:18:26.551Z,83.06
2019-03-17T05:20:52.673Z,82.78
2019-03-17T05:23:18.819Z,82.75
2019-03-17T05:25:44.948Z,82.60
2019-03-17T05:28:11.037Z,82.85
2019-03-17T05:30:37.411Z,82.65
2019-03-17T05:33:04.061Z,82.79
2019-03-17T05:35:30.459Z,82.86
2019-03-17T05:37:56.604Z,83.06
2019-03-17T05:40:22.886Z,83.02
2019-03-17T05:42:49.041Z,83.23
2019-03-17T05:45:15.244Z,82.41
2019-03-17T05:47:41.404Z,82.99
2019-03-17T05:50:08.628Z,82.92
2019-03-17T05:52:34.955Z,82.71
2019-03-17T05:55:01.532Z,82.69
2019-03-17T05:57:27.823Z,82.62
2019-03-17T05:59:53.999Z,82.59
2019-03-17T06:02:20.111Z,82.15
2019-03-17T06:04:46.774Z,82.54
2019-03-17T06:07:18.574Z,82.20
2019-03-17T06:09:40.947Z,82.02
2019-03-17T06:12:07.090Z,81.54
2019-03-17T06:14:33.142Z,82.13
2019-03-17T06:16:59.431Z,81.00
2019-03-17T06:19:25.692Z,81.06
2019-03-17T06:21:52.200Z,80.67
2019-03-17T06:24:18.441Z,80.73
2019-03-17T06:26:44.963Z,80.91
2019-03-17T06:29:11.184Z,80.67
2019-03-17T06:31:37.315Z,80.26
2019-03-17T06:34:10.368Z,80.28
2019-03-17T06:36:36.550Z,80.47
2019-03-17T06:39:05.171Z,80.06
2019-03-17T06:41:31.339Z,79.93
2019-03-17T06:43:57.779Z,80.09
2019-03-17T06:46:24.096Z,79.83
2019-03-17T06:48:50.220Z,79.98
2019-03-17T06:51:16.428Z,79.70
2019-03-17T06:53:42.480Z,79.92
2019-03-17T06:56:09.019Z,79.56
2019-03-17T06:58:35.383Z,79.46
2019-03-17T07:01:01.504Z,79.99
2019-03-17T07:03:27.597Z,79.64
2019-03-17T07:05:54.023Z,79.74
2019-03-17T07:08:20.225Z,79.95
2019-03-17T07:10:49.860Z,79.80
2019-03-17T07:13:16.294Z,79.57
2019-03-17T07:15:47.958Z,79.52
2019-03-17T07:18:15.033Z,79.65
2019-03-17T07:20:41.274Z,79.30
2019-03-17T07:23:07.528Z,79.24
2019-03-17T07:25:33.592Z,79.20
2019-03-17T07:27:59.607Z,79.12
2019-03-17T07:30:25.658Z,79.18
2019-03-17T07:32:51.667Z,79.25
2019-03-17T07:35:17.714Z,78.56
2019-03-17T07:37:55.895Z,78.55
2019-03-17T07:40:12.407Z,78.90
2019-03-17T07:42:38.618Z,78.57
2019-03-17T07:45:07.284Z,78.67
2019-03-17T07:47:35.580Z,77.44
2019-03-17T07:50:01.406Z,77.40
2019-03-17T07:52:28.344Z,77.44
2019-03-17T07:54:54.511Z,77.72
2019-03-17T07:57:20.601Z,77.34
2019-03-17T07:59:46.800Z,77.47
2019-03-17T08:02:12.849Z,77.23
2019-03-17T08:04:43.785Z,77.52
2019-03-17T08:07:06.840Z,77.72
2019-03-17T08:09:32.974Z,78.36
2019-03-17T08:11:59.233Z,76.68
2019-03-17T08:14:25.343Z,77.76
2019-03-17T08:16:51.703Z,77.80
2019-03-17T08:19:18.613Z,77.58
2019-03-17T08:21:44.729Z,77.75
2019-03-17T08:24:10.898Z,78.47
2019-03-17T08:26:36.983Z,77.54
2019-03-17T08:29:03.052Z,78.13
2019-03-17T08:31:29.100Z,77.44
2019-03-17T08:33:55.167Z,77.61
2019-03-17T08:36:21.251Z,77.93
2019-03-17T08:38:47.784Z,78.42
2019-03-17T08:41:13.945Z,78.40
2019-03-17T08:43:40.394Z,78.10
2019-03-17T08:46:06.676Z,78.84
2019-03-17T08:48:32.918Z,79.10
2019-03-17T08:51:00.154Z,79.30
2019-03-17T08:53:26.423Z,81.20
2019-03-17T08:55:52.533Z,83.63
2019-03-17T08:58:19.079Z,85.18
2019-03-17T09:00:50.211Z,85.54
2019-03-17T09:03:17.180Z,86.22
2019-03-17T09:05:43.204Z,85.14
2019-03-17T09:08:09.866Z,84.72
2019-03-17T09:10:37.838Z,85.28
2019-03-17T09:13:04.491Z,85.13
2019-03-17T09:15:30.751Z,85.72
2019-03-17T09:17:56.803Z,85.72
2019-03-17T09:20:22.968Z,84.34
2019-03-17T09:22:49.288Z,84.83
2019-03-17T09:25:15.516Z,85.07
2019-03-17T09:27:41.673Z,85.38
2019-03-17T09:30:14.422Z,85.45
2019-03-17T09:32:40.547Z,85.53
2019-03-17T09:35:07.904Z,85.36
2019-03-17T09:37:34.028Z,84.91
2019-03-17T09:40:00.409Z,85.53
2019-03-17T09:42:26.566Z,86.17
2019-03-17T09:44:58.865Z,85.05
2019-03-17T09:47:24.931Z,84.65
2019-03-17T09:49:51.121Z,85.63
2019-03-17T09:52:17.243Z,85.07
2019-03-17T09:54:43.341Z,85.11
2019-03-17T09:57:09.385Z,85.24
2019-03-17T09:59:35.693Z,85.47
2019-03-17T10:02:01.822Z,85.65
2019-03-17T10:04:27.947Z,85.73
2019-03-17T10:06:54.093Z,85.33
2019-03-17T10:09:20.233Z,85.80
2019-03-17T10:11:46.423Z,86.11
2019-03-17T10:14:12.446Z,86.07
2019-03-17T10:16:42.381Z,85.55
2019-03-17T10:19:15.003Z,85.43
2019-03-17T10:21:41.274Z,84.92
2019-03-17T10:24:07.854Z,85.36
2019-03-17T10:26:34.118Z,84.91
2019-03-17T10:29:00.764Z,84.59
2019-03-17T10:31:27.942Z,84.17
2019-03-17T10:33:54.057Z,83.78
2019-03-17T10:36:20.218Z,84.00
2019-03-17T10:38:46.235Z,83.54
2019-03-17T10:41:12.418Z,81.64
2019-03-17T10:43:38.644Z,82.07
2019-03-17T10:46:05.104Z,81.05
2019-03-17T10:48:31.574Z,81.26
2019-03-17T10:50:57.935Z,79.95
2019-03-17T10:53:24.407Z,80.99
2019-03-17T10:55:50.806Z,80.06
2019-03-17T10:58:16.965Z,80.19
2019-03-17T11:00:43.447Z,79.38
2019-03-17T11:03:10.892Z,79.54
2019-03-17T11:05:37.792Z,79.74
2019-03-17T11:08:04.762Z,79.88
2019-03-17T11:10:31.112Z,80.52
2019-03-17T11:12:57.165Z,80.48
2019-03-17T11:15:27.646Z,81.67
2019-03-17T11:17:54.066Z,81.36
2019-03-17T11:20:20.143Z,80.89
2019-03-17T11:22:46.413Z,80.72
2019-03-17T11:25:16.204Z,80.27
2019-03-17T11:27:44.796Z,79.93
2019-03-17T11:30:12.438Z,80.18
2019-03-17T11:32:38.547Z,79.52
2019-03-17T11:35:05.699Z,79.98
2019-03-17T11:37:32.047Z,79.40
2019-03-17T11:40:05.205Z,78.41
2019-03-17T11:42:31.297Z,78.70
2019-03-17T11:44:58.012Z,78.40
2019-03-17T11:47:24.327Z,78.05
2019-03-17T11:49:50.675Z,78.65
2019-03-17T11:52:16.862Z,78.68
2019-03-17T11:54:43.051Z,78.63
2019-03-17T11:57:10.634Z,78.19
2019-03-17T11:59:37.515Z,77.22
2019-03-17T12:02:06.435Z,77.68
2019-03-17T12:04:32.848Z,77.24
2019-03-17T12:06:59.010Z,76.60
2019-03-17T12:09:29.291Z,75.49
2019-03-17T12:11:53.614Z,75.12
2019-03-17T12:14:19.777Z,73.77
2019-03-17T12:16:46.093Z,72.59
2019-03-17T12:21:51.268Z,72.92
2019-03-17T12:24:17.396Z,70.28
2019-03-17T12:26:43.596Z,70.60
2019-03-17T12:29:09.751Z,68.93
2019-03-17T12:31:35.787Z,70.02
2019-03-17T12:34:02.248Z,66.22
2019-03-17T12:36:28.385Z,66.73
2019-03-17T12:38:54.478Z,65.19
2019-03-17T12:41:20.597Z,66.09
2019-03-17T12:43:46.786Z,66.36
2019-03-17T12:46:12.865Z,66.46
2019-03-17T12:48:38.941Z,67.05
2019-03-17T12:51:05.026Z,66.45
2019-03-17T12:53:31.423Z,67.12
2019-03-17T12:55:57.587Z,68.22
2019-03-17T12:58:23.657Z,68.41
2019-03-17T13:00:49.764Z,66.98
2019-03-17T13:03:15.950Z,66.15
2019-03-17T13:05:42.404Z,65.43
2019-03-17T13:08:08.438Z,63.61
2019-03-17T13:10:34.536Z,62.70
2019-03-17T13:13:01.125Z,59.81
2019-03-17T13:15:27.694Z,57.34
2019-03-17T13:17:53.790Z,57.59
2019-03-17T13:20:21.876Z,54.73
2019-03-17T13:22:49.213Z,53.86
2019-03-17T13:25:16.363Z,53.16
2019-03-17T13:27:42.745Z,50.57
2019-03-17T13:30:12.979Z,50.41
2019-03-17T13:32:39.105Z,49.87
2019-03-17T13:35:07.439Z,53.68
2019-03-17T13:37:33.767Z,54.18
2019-03-17T13:39:59.778Z,55.76
2019-03-17T13:42:25.852Z,55.24
2019-03-17T13:44:51.883Z,56.15
2019-03-17T13:47:18.106Z,57.32
2019-03-17T13:49:44.275Z,57.98
2019-03-17T13:52:10.347Z,59.29
2019-03-17T13:54:36.477Z,61.73
2019-03-17T13:57:02.865Z,62.42
2019-03-17T13:59:28.959Z,60.04
2019-03-17T14:01:55.073Z,60.88
2019-03-17T14:04:21.552Z,61.15
2019-03-17T14:06:47.675Z,62.94
2019-03-17T14:09:14.173Z,63.54
2019-03-17T14:11:40.196Z,63.89
2019-03-17T14:14:06.292Z,63.45
2019-03-17T14:16:32.388Z,64.02
2019-03-17T14:18:58.469Z,63.76
2019-03-17T14:21:24.748Z,63.07
2019-03-17T14:23:50.981Z,61.04
2019-03-17T14:26:17.098Z,63.33
2019-03-17T14:28:43.168Z,63.90
2019-03-17T14:31:09.312Z,66.31
2019-03-17T14:33:35.474Z,66.94
2019-03-17T14:36:01.670Z,66.47
2019-03-17T14:38:27.819Z,67.13
2019-03-17T14:40:57.125Z,66.65
2019-03-17T14:43:21.954Z,69.44
2019-03-17T14:45:48.147Z,70.10
2019-03-17T14:48:14.330Z,69.10
2019-03-17T14:50:40.373Z,68.66
2019-03-17T14:53:06.431Z,67.37
2019-03-17T14:55:32.564Z,66.81
2019-03-17T14:57:58.720Z,67.22
2019-03-17T15:00:24.862Z,65.54
2019-03-17T15:02:51.033Z,62.90
2019-03-17T15:05:17.261Z,63.18
2019-03-17T15:07:43.718Z,64.19
2019-03-17T15:10:24.202Z,65.01
2019-03-17T15:12:50.315Z,65.32
2019-03-17T15:15:17.266Z,66.62
2019-03-17T15:17:43.908Z,67.33
2019-03-17T15:20:12.610Z,68.27
2019-03-17T15:22:38.635Z,68.90
2019-03-17T15:25:07.402Z,69.70
2019-03-17T15:27:33.502Z,69.57
2019-03-17T15:29:59.615Z,69.47
2019-03-17T15:32:25.757Z,69.10
2019-03-17T15:34:52.385Z,69.55
2019-03-17T15:37:18.829Z,69.61
2019-03-17T15:39:46.125Z,69.31
2019-03-17T15:42:12.424Z,68.96
2019-03-17T15:44:38.568Z,68.92
2019-03-17T15:47:04.599Z,67.72
2019-03-17T15:49:31.190Z,68.56
2019-03-17T15:51:57.849Z,68.20
2019-03-17T15:54:24.019Z,68.89
2019-03-17T15:56:50.124Z,69.76
2019-03-17T15:59:16.246Z,70.29
2019-03-17T16:01:42.911Z,70.74
2019-03-17T16:04:09.320Z,70.56
2019-03-17T16:06:35.450Z,70.85
2019-03-17T16:09:01.795Z,70.52
2019-03-17T16:11:31.243Z,68.71
2019-03-17T16:13:57.224Z,67.25
2019-03-17T16:16:23.478Z,66.75
2019-03-17T16:18:49.666Z,66.49
2019-03-17T16:21:15.783Z,66.61
2019-03-17T16:23:42.020Z,66.67
2019-03-17T16:26:08.223Z,66.96
2019-03-17T16:28:34.368Z,67.65
2019-03-17T16:31:00.922Z,68.76
2019-03-17T16:33:27.551Z,68.79
2019-03-17T16:35:54.138Z,69.53
2019-03-17T16:38:20.305Z,69.47
2019-03-17T16:40:46.356Z,69.89
2019-03-17T16:43:12.828Z,70.00
2019-03-17T16:45:39.294Z,69.70
2019-03-17T16:48:05.385Z,69.95
2019-03-17T16:50:34.869Z,70.27
2019-03-17T16:53:00.917Z,70.33
2019-03-17T16:55:27.116Z,69.62
2019-03-17T16:57:53.270Z,70.08
2019-03-17T17:00:21.853Z,69.51
2019-03-17T17:02:48.423Z,69.68
2019-03-17T17:05:16.410Z,69.95
2019-03-17T17:07:42.418Z,70.16
2019-03-17T17:10:12.745Z,69.92
2019-03-17T17:12:39.178Z,69.76
2019-03-17T17:15:15.047Z,70.24
2019-03-17T17:17:41.974Z,70.89
2019-03-17T17:20:17.245Z,70.79
2019-03-17T17:22:43.586Z,71.35
2019-03-17T17:25:10.590Z,71.69
2019-03-17T17:27:39.861Z,71.88
2019-03-17T17:30:13.785Z,70.63
2019-03-17T17:32:39.897Z,71.50
2019-03-17T17:35:22.311Z,73.39
2019-03-17T17:37:48.344Z,74.13
2019-03-17T17:40:19.086Z,72.96
2019-03-17T17:42:45.307Z,72.98
2019-03-17T17:45:14.398Z,72.86
2019-03-17T17:47:40.929Z,72.14
2019-03-17T17:50:16.070Z,71.88
2019-03-17T17:52:42.402Z,71.99
2019-03-17T17:55:08.649Z,72.98
2019-03-17T17:57:36.371Z,73.65
2019-03-17T18:00:16.362Z,72.97
2019-03-17T18:02:42.595Z,72.88
2019-03-17T18:05:08.799Z,73.59
2019-03-17T18:07:34.859Z,73.94
2019-03-17T18:10:00.922Z,74.94
2019-03-17T18:12:43.491Z,75.15
2019-03-17T18:15:21.678Z,75.17
2019-03-17T18:17:47.843Z,75.46
2019-03-17T18:20:14.378Z,75.31
2019-03-17T18:22:40.668Z,75.75
2019-03-17T18:25:10.414Z,76.19
2019-03-17T18:27:36.516Z,76.53
2019-03-17T18:30:06.723Z,77.06
2019-03-17T18:32:32.948Z,77.61
2019-03-17T18:34:59.114Z,77.30
2019-03-17T18:37:25.200Z,78.09
2019-03-17T18:39:51.351Z,78.76
2019-03-17T18:42:17.598Z,79.00
2019-03-17T18:44:43.842Z,79.48
2019-03-17T18:47:10.118Z,79.44
2019-03-17T18:49:36.161Z,79.77
2019-03-17T18:52:02.492Z,79.96
2019-03-17T18:54:28.516Z,79.38
2019-03-17T18:56:54.671Z,79.07
2019-03-17T18:59:20.749Z,78.34
2019-03-17T19:01:46.868Z,76.76
2019-03-17T19:04:12.920Z,75.58
2019-03-17T19:06:39.008Z,75.26
2019-03-17T19:09:05.406Z,75.05
2019-03-17T19:11:35.811Z,74.20
2019-03-17T19:14:02.474Z,74.26
2019-03-17T19:16:29.157Z,73.88
2019-03-17T19:18:56.329Z,73.74
2019-03-17T19:21:22.656Z,74.22
2019-03-17T19:23:50.813Z,74.18
2019-03-17T19:26:17.603Z,74.48
2019-03-17T19:28:43.926Z,74.63
2019-03-17T19:31:10.180Z,75.03
2019-03-17T19:33:36.895Z,75.03
2019-03-17T19:36:04.414Z,75.43
2019-03-17T19:38:30.953Z,76.04
2019-03-17T19:40:58.719Z,76.97
2019-03-17T19:43:24.903Z,77.93
2019-03-17T19:45:51.870Z,78.40
2019-03-17T19:48:18.160Z,78.96
2019-03-17T19:50:50.152Z,77.40
2019-03-17T19:53:16.652Z,77.13
2019-03-17T19:55:47.838Z,76.83
2019-03-17T19:58:14.200Z,76.13
2019-03-17T20:00:41.062Z,75.38
2019-03-17T20:03:07.188Z,74.50
2019-03-17T20:05:33.210Z,74.15
2019-03-17T20:07:59.315Z,73.62
2019-03-17T20:10:32.588Z,73.78
2019-03-17T20:13:10.800Z,72.87
2019-03-17T20:15:28.466Z,72.59
2019-03-17T20:17:56.669Z,72.45
2019-03-17T20:20:22.794Z,72.32
2019-03-17T20:22:49.264Z,72.04
2019-03-17T20:25:18.512Z,72.78
2019-03-17T20:27:44.740Z,73.63
2019-03-17T20:30:15.231Z,74.43
2019-03-17T20:32:45.382Z,74.88
2019-03-17T20:35:14.087Z,75.39
2019-03-17T20:37:40.303Z,75.97
2019-03-17T20:40:08.959Z,76.98
2019-03-17T20:42:35.513Z,77.54
2019-03-17T20:45:02.063Z,77.70
2019-03-17T20:47:28.364Z,77.52
2019-03-17T20:49:54.563Z,77.77
2019-03-17T20:52:20.747Z,77.42
2019-03-17T20:54:46.962Z,77.23
2019-03-17T20:57:13.053Z,77.27
2019-03-17T20:59:39.110Z,77.68
2019-03-17T21:02:05.162Z,76.67
2019-03-17T21:04:31.251Z,76.58
2019-03-17T21:06:57.379Z,77.48
2019-03-17T21:09:23.501Z,77.46
2019-03-17T21:11:49.625Z,77.19
2019-03-17T21:14:16.186Z,76.95
2019-03-17T21:16:44.248Z,76.90
2019-03-17T21:19:11.449Z,77.07
2019-03-17T21:21:37.706Z,77.16
2019-03-17T21:24:03.857Z,76.96
2019-03-17T21:26:31.633Z,77.01
2019-03-17T21:28:57.775Z,76.87
2019-03-17T21:31:23.865Z,76.74
2019-03-17T21:33:50.307Z,76.32
2019-03-17T21:36:16.529Z,76.95
2019-03-17T21:38:42.765Z,77.13
2019-03-17T21:41:09.146Z,77.51
2019-03-17T21:43:35.327Z,77.36
2019-03-17T21:46:01.493Z,77.60
2019-03-17T21:48:27.665Z,78.00
2019-03-17T21:50:53.705Z,77.55
2019-03-17T21:53:19.923Z,76.84
2019-03-17T21:55:45.990Z,76.94
2019-03-17T21:58:12.467Z,76.36
2019-03-17T22:00:38.678Z,76.22
2019-03-17T22:03:04.774Z,76.01
2019-03-17T22:05:31.278Z,75.55
2019-03-17T22:07:57.472Z,76.29
2019-03-17T22:10:23.680Z,75.62
2019-03-17T22:12:49.886Z,75.75
2019-03-17T22:15:16.809Z,75.71
2019-03-17T22:17:43.026Z,75.49
2019-03-17T22:20:13.162Z,75.04
2019-03-17T22:22:39.329Z,75.39
2019-03-17T22:25:07.872Z,75.62
2019-03-17T22:27:34.103Z,75.23
2019-03-17T22:30:00.355Z,75.57
2019-03-17T22:32:26.578Z,75.76
2019-03-17T22:34:52.689Z,75.65
2019-03-17T22:37:19.012Z,75.34
2019-03-17T22:39:45.416Z,75.26
2019-03-17T22:42:12.493Z,75.54
2019-03-17T22:44:38.694Z,75.51
2019-03-17T22:47:04.803Z,75.48
2019-03-17T22:49:31.133Z,75.52
2019-03-17T22:51:57.261Z,75.60
2019-03-17T22:54:23.407Z,76.33
2019-03-17T22:56:49.612Z,76.42
2019-03-17T22:59:16.155Z,76.42
2019-03-17T23:01:42.399Z,75.88
2019-03-17T23:04:08.451Z,76.07
2019-03-17T23:06:34.586Z,76.41
2019-03-17T23:09:05.528Z,76.72
2019-03-17T23:11:31.809Z,76.87
2019-03-17T23:13:58.043Z,76.55
2019-03-17T23:16:24.258Z,76.52
2019-03-17T23:18:50.442Z,76.11
2019-03-17T23:21:16.974Z,76.68
2019-03-17T23:23:43.427Z,76.92
2019-03-17T23:26:09.541Z,76.51
2019-03-17T23:28:35.678Z,76.90
2019-03-17T23:31:01.909Z,76.74
2019-03-17T23:33:28.331Z,76.39
2019-03-17T23:35:54.415Z,76.55
2019-03-17T23:38:20.432Z,76.97
2019-03-17T23:40:46.494Z,76.85
2019-03-17T23:43:12.570Z,76.81
2019-03-17T23:45:38.757Z,76.85
2019-03-17T23:48:04.824Z,76.63
2019-03-17T23:50:31.011Z,76.86
2019-03-17T23:52:57.432Z,76.46
2019-03-17T23:55:23.611Z,76.87
2019-03-17T23:57:52.042Z,76.74
